createdAt,value
2018-02-14T00:01:13.100Z,100.90
2018-02-14T00:03:41.724Z,90.27
2018-02-14T00:06:09.394Z,93.63
2018-02-14T00:08:36.897Z,90.27
2018-02-14T00:11:04.417Z,85.73
2018-02-14T00:13:31.952Z,96.07
2018-02-14T00:15:59.469Z,94.00
2018-02-14T00:18:26.997Z,91.57
2018-02-14T00:20:54.534Z,95.40
2018-02-14T00:23:22.815Z,91.47
2018-02-14T00:25:50.334Z,89.37
2018-02-14T00:28:17.905Z,93.17
2018-02-14T00:30:45.413Z,97.87
2018-02-14T00:33:12.916Z,86.50
2018-02-14T00:35:40.440Z,93.70
2018-02-14T00:38:07.961Z,94.37
2018-02-14T00:40:36.253Z,90.73
2018-02-14T00:43:03.824Z,86.70
2018-02-14T00:45:32.106Z,87.23
2018-02-14T00:48:00.416Z,88.83
2018-02-14T00:50:27.953Z,97.40
2018-02-14T00:52:56.227Z,91.83
2018-02-14T00:55:23.735Z,86.10
2018-02-14T00:57:51.270Z,93.57
2018-02-14T01:00:18.781Z,91.73
2018-02-14T01:02:46.324Z,88.20
2018-02-14T01:05:13.863Z,82.27
2018-02-14T01:07:41.379Z,86.13
2018-02-14T01:10:08.892Z,81.20
2018-02-14T01:12:36.438Z,84.83
2018-02-14T01:15:04.730Z,82.97
2018-02-14T01:17:33.036Z,81.03
2018-02-14T01:20:06.288Z,76.10
2018-02-14T01:22:33.920Z,85.50
2018-02-14T01:25:01.425Z,75.67
2018-02-14T01:27:29.699Z,72.90
2018-02-14T01:29:58.023Z,79.80
2018-02-14T01:32:25.544Z,87.73
2018-02-14T01:34:53.850Z,83.63
2018-02-14T01:37:21.391Z,77.73
2018-02-14T01:39:49.670Z,81.93
2018-02-14T01:42:18.052Z,87.57
2018-02-14T01:44:46.320Z,82.77
2018-02-14T01:47:13.836Z,85.73
2018-02-14T01:49:41.376Z,88.73
2018-02-14T01:52:08.885Z,82.40
2018-02-14T01:54:36.396Z,82.67
2018-02-14T01:57:04.686Z,92.67
2018-02-14T01:59:32.212Z,84.00
2018-02-14T02:01:59.723Z,87.37
2018-02-14T02:04:27.279Z,99.30
2018-02-14T02:06:54.790Z,99.37
2018-02-14T02:09:22.308Z,82.90
2018-02-14T02:11:49.846Z,85.83
2018-02-14T02:14:18.121Z,83.70
2018-02-14T02:16:45.619Z,81.40
2018-02-14T02:19:13.145Z,75.57
2018-02-14T02:21:40.659Z,85.20
2018-02-14T02:24:08.159Z,78.00
2018-02-14T02:26:35.699Z,75.10
2018-02-14T02:29:03.246Z,74.60
2018-02-14T02:31:30.756Z,75.93
2018-02-14T02:33:58.296Z,71.70
2018-02-14T02:36:25.815Z,72.63
2018-02-14T02:38:53.320Z,77.97
2018-02-14T02:41:20.853Z,83.13
2018-02-14T02:43:48.365Z,85.73
2018-02-14T02:46:15.867Z,78.10
2018-02-14T02:48:43.400Z,73.87
2018-02-14T02:51:10.900Z,78.93
2018-02-14T02:53:38.409Z,76.03
2018-02-14T02:56:06.048Z,73.07
2018-02-14T02:58:33.552Z,79.63
2018-02-14T03:01:01.064Z,78.50
2018-02-14T03:03:28.704Z,73.63
2018-02-14T03:05:56.980Z,75.33
2018-02-14T03:08:25.254Z,70.83
2018-02-14T03:10:53.561Z,66.37
2018-02-14T03:13:21.074Z,68.43
2018-02-14T03:15:48.582Z,65.40
2018-02-14T03:18:16.112Z,74.50
2018-02-14T03:20:43.621Z,64.83
2018-02-14T03:23:11.123Z,66.73
2018-02-14T03:25:38.653Z,67.93
2018-02-14T03:28:06.169Z,65.27
2018-02-14T03:30:34.445Z,63.10
2018-02-14T03:33:01.993Z,70.27
2018-02-14T03:35:29.511Z,61.07
2018-02-14T03:37:57.340Z,55.70
2018-02-14T03:40:24.959Z,54.53
2018-02-14T03:42:52.475Z,66.47
2018-02-14T03:45:20.768Z,64.33
2018-02-14T03:47:49.065Z,63.07
2018-02-14T03:50:16.577Z,60.30
2018-02-14T03:52:44.082Z,69.47
2018-02-14T03:55:11.620Z,71.10
2018-02-14T03:57:39.136Z,69.07
2018-02-14T04:00:06.648Z,67.17
2018-02-14T04:02:35.053Z,76.90
2018-02-14T04:05:02.568Z,73.13
2018-02-14T04:07:30.089Z,66.97
2018-02-14T04:09:57.626Z,76.07
2018-02-14T04:12:25.904Z,82.90
2018-02-14T04:14:54.189Z,79.47
2018-02-14T04:17:22.480Z,74.00
2018-02-14T04:19:50.760Z,73.33
2018-02-14T04:22:19.040Z,78.87
2018-02-14T04:24:47.320Z,79.33
2018-02-14T04:27:15.611Z,74.30
2018-02-14T04:29:43.120Z,79.60
2018-02-14T04:32:10.630Z,72.57
2018-02-14T04:34:38.162Z,80.37
2018-02-14T04:37:05.672Z,73.80
2018-02-14T04:39:33.184Z,68.70
2018-02-14T04:42:00.732Z,80.80
2018-02-14T04:44:28.253Z,70.67
2018-02-14T04:46:55.772Z,74.03
2018-02-14T04:49:23.300Z,67.37
2018-02-14T04:51:50.812Z,72.03
2018-02-14T04:54:18.328Z,76.70
2018-02-14T04:56:45.966Z,70.40
2018-02-14T04:59:13.487Z,74.47
2018-02-14T05:01:40.992Z,80.83
2018-02-14T05:04:08.537Z,68.77
2018-02-14T05:06:36.815Z,77.03
2018-02-14T05:09:05.212Z,72.43
2018-02-14T05:11:33.489Z,72.70
2018-02-14T05:14:01.788Z,83.70
2018-02-14T05:16:29.296Z,70.97
2018-02-14T05:21:31.662Z,76.00
2018-02-14T05:23:59.175Z,81.53
2018-02-14T05:26:26.690Z,78.63
2018-02-14T05:28:54.237Z,82.33
2018-02-14T05:31:21.759Z,77.67
2018-02-14T05:33:49.277Z,81.10
2018-02-14T05:36:16.826Z,82.53
2018-02-14T05:38:44.337Z,87.70
2018-02-14T05:41:11.859Z,88.97
2018-02-14T05:43:39.496Z,90.57
2018-02-14T05:46:07.764Z,86.07
2018-02-14T05:48:35.267Z,91.73
2018-02-14T05:51:02.810Z,83.60
2018-02-14T05:53:30.325Z,89.90
2018-02-14T05:55:57.856Z,92.93
2018-02-14T05:58:25.430Z,95.43
2018-02-14T06:00:52.932Z,98.93
2018-02-14T06:03:20.463Z,93.83
2018-02-14T06:05:48.005Z,91.13
2018-02-14T06:08:15.538Z,104.43
2018-02-14T06:10:43.816Z,97.37
2018-02-14T06:13:12.116Z,98.70
2018-02-14T06:15:39.639Z,102.67
2018-02-14T06:18:07.155Z,96.63
2018-02-14T06:20:34.750Z,97.83
2018-02-14T06:23:02.252Z,98.57
2018-02-14T06:25:30.533Z,96.13
2018-02-14T06:27:58.943Z,106.27
2018-02-14T06:30:26.470Z,114.03
2018-02-14T06:32:54.000Z,107.03
2018-02-14T06:35:22.388Z,111.47
2018-02-14T06:37:49.910Z,101.77
2018-02-14T06:40:17.437Z,111.27
2018-02-14T06:42:44.994Z,108.87
2018-02-14T06:45:12.518Z,108.23
2018-02-14T06:47:40.046Z,107.73
2018-02-14T06:50:07.606Z,110.87
2018-02-14T06:52:35.895Z,103.87
2018-02-14T06:55:04.173Z,106.37
2018-02-14T06:57:32.500Z,104.00
2018-02-14T07:00:00.029Z,105.60
2018-02-14T07:02:27.551Z,92.57
2018-02-14T07:04:55.087Z,102.40
2018-02-14T07:07:22.600Z,114.27
2018-02-14T07:09:50.884Z,99.53
2018-02-14T07:12:19.178Z,105.67
2018-02-14T07:14:46.692Z,103.17
2018-02-14T07:17:14.210Z,105.57
2018-02-14T07:19:41.746Z,97.23
2018-02-14T07:22:10.025Z,101.97
2018-02-14T07:24:37.549Z,105.40
2018-02-14T07:27:05.081Z,102.90
2018-02-14T07:29:32.597Z,97.93
2018-02-14T07:32:00.114Z,92.77
2018-02-14T07:34:27.642Z,87.93
2018-02-14T07:36:55.148Z,98.37
2018-02-14T07:39:22.662Z,94.87
2018-02-14T07:41:50.201Z,92.60
2018-02-14T07:44:17.733Z,85.07
2018-02-14T07:46:45.257Z,95.20
2018-02-14T07:49:13.574Z,87.27
2018-02-14T07:51:41.089Z,93.33
2018-02-14T07:54:08.603Z,89.30
2018-02-14T07:56:36.264Z,91.73
2018-02-14T07:59:03.818Z,87.87
2018-02-14T08:01:31.374Z,93.27
2018-02-14T08:03:59.751Z,87.13
2018-02-14T08:06:27.314Z,91.53
2018-02-14T08:08:55.686Z,81.47
2018-02-14T08:11:23.225Z,79.40
2018-02-14T08:13:50.736Z,89.77
2018-02-14T08:16:18.264Z,88.23
2018-02-14T08:18:45.825Z,89.67
2018-02-14T08:21:13.348Z,73.40
2018-02-14T08:23:40.862Z,84.73
2018-02-14T08:26:08.424Z,87.53
2018-02-14T08:28:35.931Z,85.90
2018-02-14T08:31:03.447Z,83.10
2018-02-14T08:33:30.998Z,78.50
2018-02-14T08:35:58.536Z,88.20
2018-02-14T08:38:26.044Z,85.77
2018-02-14T08:40:53.590Z,80.73
2018-02-14T08:43:21.108Z,77.80
2018-02-14T08:45:48.613Z,78.17
2018-02-14T08:48:16.152Z,74.30
2018-02-14T08:50:43.664Z,83.13
2018-02-14T08:53:11.955Z,71.80
2018-02-14T08:55:40.290Z,77.17
2018-02-14T08:58:07.835Z,85.23
2018-02-14T09:00:35.391Z,82.03
2018-02-14T09:03:03.039Z,75.23
2018-02-14T09:05:30.563Z,74.90
2018-02-14T09:07:58.075Z,75.47
2018-02-14T09:10:25.622Z,83.37
2018-02-14T09:12:53.911Z,88.57
2018-02-14T09:15:21.434Z,81.13
2018-02-14T09:17:48.969Z,94.87
2018-02-14T09:20:16.478Z,88.30
2018-02-14T09:22:43.997Z,82.93
2018-02-14T09:25:11.671Z,80.70
2018-02-14T09:27:39.223Z,76.73
2018-02-14T09:30:06.754Z,78.97
2018-02-14T09:32:35.041Z,88.33
2018-02-14T09:35:02.567Z,95.00
2018-02-14T09:37:30.099Z,81.60
2018-02-14T09:39:58.415Z,88.07
2018-02-14T09:42:25.941Z,88.33
2018-02-14T09:44:53.470Z,90.63
2018-02-14T09:47:21.051Z,94.30
2018-02-14T09:49:48.562Z,92.33
2018-02-14T09:52:16.081Z,94.17
2018-02-14T09:54:43.630Z,91.07
2018-02-14T09:57:11.138Z,83.93
2018-02-14T09:59:38.679Z,87.47
2018-02-14T10:02:06.221Z,81.53
2018-02-14T10:04:33.734Z,85.77
2018-02-14T10:07:01.260Z,83.20
2018-02-14T10:09:28.816Z,91.33
2018-02-14T10:11:56.371Z,86.27
2018-02-14T10:14:23.900Z,66.57
2018-02-14T10:16:51.451Z,68.77
2018-02-14T10:19:18.988Z,73.50
2018-02-14T10:21:46.540Z,71.30
2018-02-14T10:24:14.100Z,54.57
2018-02-14T10:26:41.623Z,55.80
2018-02-14T10:29:09.142Z,55.03
2018-02-14T10:31:36.689Z,52.43
2018-02-14T10:34:04.209Z,58.33
2018-02-14T10:36:31.738Z,55.30
2018-02-14T10:38:59.276Z,64.63
2018-02-14T10:41:26.788Z,64.70
2018-02-14T10:43:54.304Z,64.13
2018-02-14T10:46:21.844Z,52.33
2018-02-14T10:48:50.113Z,56.40
2018-02-14T10:51:17.670Z,51.23
2018-02-14T10:53:45.242Z,51.63
2018-02-14T10:56:13.514Z,49.87
2018-02-14T10:58:41.064Z,43.03
2018-02-14T11:01:08.667Z,48.13
2018-02-14T11:03:41.189Z,46.23
2018-02-14T11:06:12.729Z,56.40
2018-02-14T11:08:40.258Z,46.57
2018-02-14T11:11:08.583Z,46.33
2018-02-14T11:13:36.236Z,51.67
2018-02-14T11:16:03.763Z,53.77
2018-02-14T11:18:32.047Z,55.70
2018-02-14T11:21:00.385Z,51.90
2018-02-14T11:26:01.843Z,54.03
2018-02-14T11:28:29.379Z,53.73
2018-02-14T11:30:56.924Z,49.90
2018-02-14T11:33:25.247Z,50.00
2018-02-14T11:35:52.765Z,50.57
2018-02-14T11:38:21.061Z,50.87
2018-02-14T11:40:49.465Z,50.47
2018-02-14T11:43:17.019Z,52.07
2018-02-14T11:45:44.559Z,46.17
2018-02-14T11:48:12.862Z,53.93
2018-02-14T11:50:40.415Z,48.53
2018-02-14T11:53:07.958Z,49.03
2018-02-14T11:55:35.621Z,49.50
2018-02-14T11:58:03.138Z,42.07
2018-02-14T12:00:30.655Z,44.20
2018-02-14T12:02:58.982Z,39.90
2018-02-14T12:05:26.551Z,43.47
2018-02-14T12:07:54.094Z,36.37
2018-02-14T12:10:21.663Z,41.43
2018-02-14T12:12:49.199Z,41.97
2018-02-14T12:15:17.482Z,42.13
2018-02-14T12:17:45.834Z,43.53
2018-02-14T12:20:13.401Z,43.53
2018-02-14T12:22:40.941Z,35.40
2018-02-14T12:25:08.646Z,37.90
2018-02-14T12:27:37.036Z,36.17
2018-02-14T12:30:05.359Z,34.97
2018-02-14T12:32:32.898Z,35.67
2018-02-14T12:35:00.415Z,36.20
2018-02-14T12:37:27.993Z,37.77
2018-02-14T12:39:55.521Z,37.03
2018-02-14T12:42:23.087Z,38.20
2018-02-14T12:44:50.655Z,40.30
2018-02-14T12:47:18.183Z,40.03
2018-02-14T12:49:45.731Z,38.23
2018-02-14T12:52:14.050Z,37.37
2018-02-14T12:54:41.577Z,42.83
2018-02-14T12:57:09.856Z,36.57
2018-02-14T12:59:38.164Z,41.07
2018-02-14T13:02:05.663Z,40.80
2018-02-14T13:04:33.187Z,43.93
2018-02-14T13:07:00.747Z,36.80
2018-02-14T13:09:28.258Z,47.93
2018-02-14T13:11:55.802Z,47.00
2018-02-14T13:14:23.424Z,43.53
2018-02-14T13:16:51.773Z,44.27
2018-02-14T13:19:19.298Z,58.33
2018-02-14T13:21:46.844Z,58.07
2018-02-14T13:24:14.358Z,63.77
2018-02-14T13:26:41.955Z,59.87
2018-02-14T13:29:10.260Z,56.00
2018-02-14T13:31:37.776Z,54.37
2018-02-14T13:34:05.303Z,58.13
2018-02-14T13:36:32.865Z,54.50
2018-02-14T13:39:00.384Z,49.80
2018-02-14T13:41:28.683Z,52.07
2018-02-14T13:43:56.226Z,51.47
2018-02-14T13:46:24.504Z,55.43
2018-02-14T13:48:52.899Z,55.50
2018-02-14T13:51:21.216Z,53.00
2018-02-14T13:53:48.790Z,48.63
2018-02-14T13:56:17.124Z,52.63
2018-02-14T13:58:45.404Z,54.17
2018-02-14T14:01:13.798Z,54.10
2018-02-14T14:03:42.125Z,54.27
2018-02-14T14:06:09.641Z,53.40
2018-02-14T14:08:37.958Z,64.13
2018-02-14T14:11:05.507Z,63.70
2018-02-14T14:13:33.050Z,48.63
2018-02-14T14:16:00.604Z,48.87
2018-02-14T14:18:28.935Z,52.33
2018-02-14T14:20:56.692Z,49.50
2018-02-14T14:23:24.363Z,54.20
2018-02-14T14:25:51.939Z,55.10
2018-02-14T14:28:19.536Z,58.10
2018-02-14T14:30:48.023Z,59.00
2018-02-14T14:33:15.634Z,56.17
2018-02-14T14:35:43.244Z,60.90
2018-02-14T14:38:10.796Z,64.63
2018-02-14T14:40:38.376Z,64.67
2018-02-14T14:43:05.929Z,56.33
2018-02-14T14:45:33.505Z,59.67
2018-02-14T14:48:01.850Z,60.20
2018-02-14T14:50:29.518Z,61.53
2018-02-14T14:52:57.131Z,66.60
2018-02-14T14:55:24.718Z,63.10
2018-02-14T14:57:52.244Z,70.90
2018-02-14T15:00:20.981Z,75.87
2018-02-14T15:02:48.634Z,78.13
2018-02-14T15:05:16.213Z,78.60
2018-02-14T15:07:44.292Z,79.03
2018-02-14T15:10:12.035Z,65.80
2018-02-14T15:12:39.686Z,66.57
2018-02-14T15:15:08.173Z,65.10
2018-02-14T15:17:36.484Z,67.43
2018-02-14T15:20:04.014Z,74.47
2018-02-14T15:22:32.314Z,71.97
2018-02-14T15:25:00.632Z,72.40
2018-02-14T15:27:28.167Z,65.77
2018-02-14T15:29:55.757Z,78.20
2018-02-14T15:32:23.308Z,71.30
2018-02-14T15:34:51.653Z,73.00
2018-02-14T15:37:19.980Z,72.10
2018-02-14T15:39:47.543Z,75.17
2018-02-14T15:42:15.198Z,72.83
2018-02-14T15:44:42.856Z,60.53
2018-02-14T15:47:10.638Z,64.43
2018-02-14T15:49:38.196Z,66.57
2018-02-14T15:52:05.906Z,74.57
2018-02-14T15:54:33.515Z,78.13
2018-02-14T15:57:01.020Z,84.50
2018-02-14T15:59:28.580Z,81.03
2018-02-14T16:01:56.122Z,85.10
2018-02-14T16:04:23.667Z,84.43
2018-02-14T16:06:51.338Z,85.57
2018-02-14T16:09:18.888Z,156.63
2018-02-14T16:11:47.228Z,71.87
2018-02-14T16:14:14.828Z,72.90
2018-02-14T16:16:42.437Z,79.67
2018-02-14T16:19:10.133Z,81.47
2018-02-14T16:21:37.705Z,78.33
2018-02-14T16:24:05.375Z,75.10
2018-02-14T16:26:32.940Z,79.73
2018-02-14T16:29:00.509Z,77.83
2018-02-14T16:31:28.838Z,72.47
2018-02-14T16:33:57.211Z,71.40
2018-02-14T16:36:24.760Z,74.53
2018-02-14T16:38:52.367Z,70.13
2018-02-14T16:41:19.968Z,69.33
2018-02-14T16:43:48.309Z,70.10
2018-02-14T16:46:15.919Z,74.67
2018-02-14T16:48:44.271Z,86.70
2018-02-14T16:51:12.012Z,73.10
2018-02-14T16:53:39.665Z,76.00
2018-02-14T16:56:07.283Z,67.17
2018-02-14T16:58:34.969Z,75.30
2018-02-14T17:01:03.372Z,72.63
2018-02-14T17:03:30.992Z,65.67
2018-02-14T17:05:58.553Z,71.43
2018-02-14T17:08:27.096Z,74.47
2018-02-14T17:10:54.775Z,69.30
2018-02-14T17:13:22.378Z,75.27
2018-02-14T17:15:49.990Z,67.83
2018-02-14T17:18:18.965Z,81.50
2018-02-14T17:20:46.984Z,73.90
2018-02-14T17:23:15.278Z,73.60
2018-02-14T17:25:43.326Z,62.60
2018-02-14T17:28:11.102Z,66.97
2018-02-14T17:30:39.076Z,68.10
2018-02-14T17:33:07.610Z,70.83
2018-02-14T17:35:35.752Z,63.10
2018-02-14T17:38:03.429Z,72.57
2018-02-14T17:40:31.792Z,71.00
2018-02-14T17:42:59.368Z,75.57
2018-02-14T17:45:27.119Z,78.43
2018-02-14T17:47:55.936Z,77.30
2018-02-14T17:50:23.583Z,72.97
2018-02-14T17:52:51.745Z,87.17
2018-02-14T17:55:19.348Z,75.83
2018-02-14T17:57:48.791Z,74.57
2018-02-14T18:00:16.501Z,68.80
2018-02-14T18:02:46.309Z,71.87
2018-02-14T18:05:14.240Z,74.43
2018-02-14T18:07:43.701Z,71.73
2018-02-14T18:10:13.638Z,71.80
2018-02-14T18:12:42.527Z,68.20
2018-02-14T18:15:10.162Z,74.67
2018-02-14T18:17:38.889Z,74.80
2018-02-14T18:20:06.667Z,72.03
2018-02-14T18:22:35.896Z,76.90
2018-02-14T18:25:04.900Z,76.20
2018-02-14T18:27:32.962Z,76.83
2018-02-14T18:30:01.622Z,75.87
2018-02-14T18:32:31.023Z,81.73
2018-02-14T18:34:58.869Z,77.63
2018-02-14T18:37:26.616Z,75.07
2018-02-14T18:39:55.922Z,67.97
2018-02-14T18:42:24.543Z,73.33
2018-02-14T18:44:52.349Z,67.10
2018-02-14T18:47:20.060Z,64.10
2018-02-14T18:49:48.591Z,69.20
2018-02-14T18:52:16.187Z,63.07
2018-02-14T18:54:44.037Z,66.30
2018-02-14T18:57:12.406Z,66.27
2018-02-14T18:59:40.002Z,78.70
2018-02-14T19:02:07.943Z,80.40
2018-02-14T19:04:35.559Z,71.20
2018-02-14T19:07:03.409Z,71.40
2018-02-14T19:09:31.707Z,76.87
2018-02-14T19:11:59.320Z,70.87
2018-02-14T19:14:26.969Z,73.27
2018-02-14T19:16:54.523Z,79.67
2018-02-14T19:19:22.122Z,70.50
2018-02-14T19:21:50.300Z,75.97
2018-02-14T19:24:17.907Z,80.80
2018-02-14T19:26:45.526Z,77.67
2018-02-14T19:29:13.899Z,79.63
2018-02-14T19:31:41.489Z,75.63
2018-02-14T19:34:09.215Z,80.30
2018-02-14T19:36:36.885Z,73.50
2018-02-14T19:39:04.421Z,73.60
2018-02-14T19:41:31.960Z,72.33
2018-02-14T19:43:59.705Z,71.70
2018-02-14T19:46:27.390Z,75.80
2018-02-14T19:48:55.054Z,73.70
2018-02-14T19:51:22.826Z,77.73
2018-02-14T19:53:51.195Z,71.30
2018-02-14T19:56:18.772Z,79.73
2018-02-14T19:58:47.097Z,81.33
2018-02-14T20:01:14.634Z,71.23
2018-02-14T20:03:42.219Z,78.53
2018-02-14T20:06:09.915Z,85.23
2018-02-14T20:08:37.445Z,82.00
2018-02-14T20:11:05.018Z,74.73
2018-02-14T20:13:32.619Z,79.97
2018-02-14T20:16:00.161Z,78.07
2018-02-14T20:18:27.726Z,80.90
2018-02-14T20:20:55.334Z,78.07
2018-02-14T20:23:23.709Z,72.67
2018-02-14T20:25:51.242Z,82.63
2018-02-14T20:28:18.892Z,72.80
2018-02-14T20:30:46.432Z,77.40
2018-02-14T20:33:14.092Z,78.97
2018-02-14T20:35:42.447Z,76.13
2018-02-14T20:38:10.063Z,74.37
2018-02-14T20:40:37.683Z,83.57
2018-02-14T20:43:05.261Z,72.27
2018-02-14T20:45:33.579Z,83.07
2018-02-14T20:48:01.110Z,81.37
2018-02-14T20:50:29.560Z,82.30
2018-02-14T20:52:57.183Z,61.60
2018-02-14T20:55:25.410Z,67.40
2018-02-14T20:57:54.149Z,70.73
2018-02-14T21:00:22.410Z,70.10
2018-02-14T21:02:50.083Z,68.17
2018-02-14T21:05:17.679Z,59.80
2018-02-14T21:07:45.281Z,66.07
2018-02-14T21:10:12.933Z,68.13
2018-02-14T21:12:40.616Z,63.10
2018-02-14T21:15:08.641Z,64.93
2018-02-14T21:17:36.299Z,60.27
2018-02-14T21:20:04.223Z,66.60
2018-02-14T21:22:32.568Z,65.73
2018-02-14T21:25:00.169Z,64.03
2018-02-14T21:27:27.840Z,60.10
2018-02-14T21:29:55.383Z,62.33
2018-02-14T21:32:22.969Z,67.30
2018-02-14T21:34:50.542Z,66.53
2018-02-14T21:37:18.163Z,65.23
2018-02-14T21:39:45.801Z,70.37
2018-02-14T21:42:13.627Z,65.93
2018-02-14T21:44:41.192Z,69.10
2018-02-14T21:47:08.874Z,72.50
2018-02-14T21:49:36.477Z,72.83
2018-02-14T21:52:04.110Z,72.17
2018-02-14T21:54:32.572Z,86.33
2018-02-14T21:57:00.391Z,89.70
2018-02-14T21:59:28.156Z,98.63
2018-02-14T22:01:55.717Z,80.17
2018-02-14T22:04:23.296Z,73.53
2018-02-14T22:06:50.901Z,67.53
2018-02-14T22:09:18.488Z,73.03
2018-02-14T22:11:46.253Z,72.47
2018-02-14T22:14:13.785Z,66.87
2018-02-14T22:16:41.339Z,70.27
2018-02-14T22:19:08.917Z,64.47
2018-02-14T22:21:36.447Z,67.40
2018-02-14T22:24:03.994Z,65.70
2018-02-14T22:26:32.336Z,68.27
2018-02-14T22:28:59.917Z,65.47
2018-02-14T22:31:27.469Z,66.03
2018-02-14T22:33:55.113Z,68.67
2018-02-14T22:36:22.669Z,67.67
2018-02-14T22:38:50.260Z,70.27
2018-02-14T22:41:17.814Z,68.80
2018-02-14T22:43:45.391Z,70.30
2018-02-14T22:46:12.996Z,73.10
2018-02-14T22:48:40.638Z,81.77
2018-02-14T22:51:08.945Z,84.87
2018-02-14T22:53:36.518Z,86.90
2018-02-14T22:56:04.070Z,90.07
2018-02-14T22:58:31.655Z,88.50
2018-02-14T23:00:59.644Z,93.20
2018-02-14T23:03:27.277Z,75.97
2018-02-14T23:05:54.815Z,73.30
2018-02-14T23:08:23.120Z,66.13
2018-02-14T23:10:50.666Z,64.67
2018-02-14T23:13:18.955Z,63.43
2018-02-14T23:15:47.259Z,63.83
2018-02-14T23:18:14.806Z,67.27
2018-02-14T23:20:42.336Z,58.60
2018-02-14T23:23:09.864Z,53.63
2018-02-14T23:25:37.418Z,51.23
2018-02-14T23:28:04.957Z,51.27
2018-02-14T23:30:32.486Z,57.87
2018-02-14T23:33:00.050Z,51.10
2018-02-14T23:35:27.588Z,53.30
2018-02-14T23:37:55.170Z,49.37
2018-02-14T23:40:22.711Z,54.53
2018-02-14T23:42:50.236Z,55.50
2018-02-14T23:45:18.552Z,55.63
2018-02-14T23:47:46.088Z,59.20
2018-02-14T23:50:13.628Z,57.97
2018-02-14T23:52:41.931Z,54.10
2018-02-14T23:55:09.467Z,59.83
2018-02-14T23:57:36.987Z,53.07
